Time;durP1;ratioP1;P1;durP2;ratioP2;P2;SDS_P1;SDS_P2;PMS_P1;PMS_P2;Temp;Humidity;BMP_temperature;BMP_pressure;BME280_temperature;BME280_humidity;BME280_pressure;Samples;Min_cycle;Max_cycle;Signal;HPM_P1;HPM_P2
2021/08/29 00:00:37;;;;;;;9.90;6.32;;;;;;;;;;7378198;19;20117;-59
2021/08/29 00:03:03;;;;;;;11.73;6.65;;;;;;;;;;7373702;19;20010;-59
2021/08/29 00:05:29;;;;;;;9.50;5.93;;;;;;;;;;7378946;19;20010;-59
2021/08/29 00:07:55;;;;;;;13.43;6.20;;;;;;;;;;7374253;19;20021;-59
2021/08/29 00:10:21;;;;;;;9.90;6.40;;;;;;;;;;7376860;19;20071;-61
2021/08/29 00:12:47;;;;;;;9.05;5.53;;;;;;;;;;7378065;19;20014;-59
2021/08/29 00:15:13;;;;;;;9.35;5.80;;;;;;;;;;7377958;19;20036;-59
2021/08/29 00:17:39;;;;;;;12.20;6.47;;;;;;;;;;7378317;19;20014;-59
2021/08/29 00:20:07;;;;;;;9.90;6.25;;;;;;;;;;7376359;19;20446;-59
2021/08/29 00:22:33;;;;;;;11.93;6.63;;;;;;;;;;7375858;19;20035;-59
2021/08/29 00:25:00;;;;;;;9.82;6.57;;;;;;;;;;7376763;19;20018;-59
2021/08/29 00:27:26;;;;;;;11.35;6.13;;;;;;;;;;7376377;19;20026;-59
2021/08/29 00:29:52;;;;;;;10.00;6.60;;;;;;;;;;7376323;19;20015;-59
2021/08/29 00:32:18;;;;;;;12.77;7.50;;;;;;;;;;7372113;19;20048;-59
2021/08/29 00:34:43;;;;;;;12.80;7.28;;;;;;;;;;7374630;19;20019;-59
2021/08/29 00:37:10;;;;;;;14.27;6.88;;;;;;;;;;7374655;19;20014;-59
2021/08/29 00:39:36;;;;;;;11.40;7.13;;;;;;;;;;7376215;19;20026;-59
2021/08/29 00:42:02;;;;;;;12.82;7.32;;;;;;;;;;7371788;19;20089;-59
2021/08/29 00:44:28;;;;;;;10.18;6.70;;;;;;;;;;7374862;19;20116;-59
2021/08/29 00:46:54;;;;;;;10.88;6.60;;;;;;;;;;7372506;19;20932;-59
2021/08/29 00:49:20;;;;;;;9.35;6.50;;;;;;;;;;7372108;19;20754;-59
2021/08/29 00:51:47;;;;;;;13.32;7.10;;;;;;;;;;7375752;19;20028;-59
2021/08/29 00:54:13;;;;;;;10.63;6.60;;;;;;;;;;7371694;19;20373;-59
2021/08/29 00:56:39;;;;;;;11.82;6.53;;;;;;;;;;7373495;19;20077;-59
2021/08/29 00:59:08;;;;;;;9.82;6.43;;;;;;;;;;7371197;19;20014;-59
2021/08/29 01:01:35;;;;;;;10.57;6.07;;;;;;;;;;7375614;19;20124;-59
2021/08/29 01:04:01;;;;;;;11.10;6.85;;;;;;;;;;7374289;19;20018;-59
2021/08/29 01:06:27;;;;;;;10.10;6.65;;;;;;;;;;7375575;19;20029;-59
2021/08/29 01:09:23;;;;;;;12.27;6.40;;;;;;;;;;7374996;19;20022;-62
2021/08/29 01:11:49;;;;;;;14.98;7.07;;;;;;;;;;7372705;19;20076;-59
2021/08/29 01:14:20;;;;;;;10.48;6.55;;;;;;;;;;7372443;19;20417;-59
2021/08/29 01:16:46;;;;;;;8.70;6.20;;;;;;;;;;7374005;19;20033;-59
2021/08/29 01:19:12;;;;;;;14.52;6.82;;;;;;;;;;7372818;19;20020;-59
2021/08/29 01:21:40;;;;;;;10.63;7.43;;;;;;;;;;7371926;19;20007;-59
2021/08/29 01:24:11;;;;;;;13.20;7.63;;;;;;;;;;7374026;19;20026;-59
2021/08/29 01:26:38;;;;;;;10.10;7.05;;;;;;;;;;7373208;19;20014;-59
2021/08/29 01:29:04;;;;;;;10.15;6.57;;;;;;;;;;7373131;19;20011;-59
2021/08/29 01:31:32;;;;;;;15.88;7.80;;;;;;;;;;7373080;19;20497;-59
2021/08/29 01:33:59;;;;;;;12.70;7.60;;;;;;;;;;7373199;19;20098;-59
2021/08/29 01:36:25;;;;;;;11.93;7.63;;;;;;;;;;7374881;19;20090;-59
2021/08/29 01:38:51;;;;;;;12.38;7.57;;;;;;;;;;7372124;19;20014;-59
2021/08/29 01:41:17;;;;;;;11.05;7.07;;;;;;;;;;7372775;19;20014;-59
2021/08/29 01:43:46;;;;;;;10.77;7.10;;;;;;;;;;7373409;19;20014;-59
2021/08/29 01:46:12;;;;;;;11.60;7.25;;;;;;;;;;7374473;19;20034;-59
2021/08/29 01:48:50;;;;;;;10.90;7.43;;;;;;;;;;7371906;19;20011;-59
2021/08/29 01:51:16;;;;;;;12.73;7.72;;;;;;;;;;7374202;19;20033;-59
2021/08/29 01:53:46;;;;;;;10.82;7.50;;;;;;;;;;7372772;19;20025;-59
2021/08/29 01:56:17;;;;;;;8.60;6.15;;;;;;;;;;7373857;19;20565;-59
2021/08/29 01:58:50;;;;;;;12.57;7.50;;;;;;;;;;7374973;19;20698;-59
2021/08/29 02:01:16;;;;;;;11.20;6.78;;;;;;;;;;7374408;19;20027;-59
2021/08/29 02:03:44;;;;;;;14.13;7.03;;;;;;;;;;7373898;19;20015;-59
2021/08/29 02:06:22;;;;;;;12.82;7.68;;;14.90;99.90;;;;;;7373519;19;20364;-59
2021/08/29 02:08:48;;;;;;;12.63;6.70;;;;;;;;;;7373855;19;20048;-62
2021/08/29 02:11:15;;;;;;;10.70;6.95;;;;;;;;;;7373916;19;20022;-61
2021/08/29 02:13:41;;;;;;;10.07;6.95;;;;;;;;;;7372689;19;20857;-62
2021/08/29 02:16:08;;;;;;;11.85;6.97;;;;;;;;;;7373786;19;20018;-61
2021/08/29 02:18:34;;;;;;;9.38;6.40;;;;;;;;;;7371265;19;21058;-62
2021/08/29 02:21:00;;;;;;;10.38;6.72;;;;;;;;;;7372020;19;20784;-62
2021/08/29 02:23:29;;;;;;;11.85;6.50;;;;;;;;;;7370508;19;20810;-59
2021/08/29 02:25:55;;;;;;;11.55;7.35;;;;;;;;;;7372935;19;20483;-62
2021/08/29 02:28:22;;;;;;;10.80;6.80;;;;;;;;;;7371456;19;20455;-61
2021/08/29 02:30:47;;;;;;;9.40;6.50;;;15.00;99.90;;;;;;7371037;19;20043;-62
2021/08/29 02:33:16;;;;;;;13.20;6.53;;;;;;;;;;7370516;19;20018;-61
2021/08/29 02:35:43;;;;;;;10.23;6.43;;;;;;;;;;7370996;19;20024;-59
2021/08/29 02:38:11;;;;;;;12.63;7.18;;;;;;;;;;7369725;19;20348;-61
2021/08/29 02:40:39;;;;;;;11.32;7.25;;;;;;;;;;7370045;19;20033;-61
2021/08/29 02:43:05;;;;;;;12.50;7.53;;;;;;;;;;7371894;19;20757;-61
2021/08/29 02:45:31;;;;;;;11.23;6.35;;;;;;;;;;7370844;19;20022;-61
2021/08/29 02:47:58;;;;;;;19.92;7.95;;;;;;;;;;7370232;19;20019;-68
2021/08/29 02:50:31;;;;;;;11.13;6.82;;;;;;;;;;7371001;19;20022;-69
2021/08/29 02:52:58;;;;;;;11.00;6.55;;;;;;;;;;7372631;19;20018;-69
2021/08/29 02:55:24;;;;;;;10.90;6.45;;;;;;;;;;7373466;19;20015;-68
2021/08/29 02:57:51;;;;;;;10.07;6.28;;;;;;;;;;7370521;19;20022;-68
2021/08/29 03:00:36;;;;;;;10.52;6.20;;;;;;;;;;7374627;19;20028;-68
2021/08/29 03:03:10;;;;;;;11.63;6.45;;;;;;;;;;7369339;19;20026;-68
2021/08/29 03:05:36;;;;;;;9.80;6.50;;;;;;;;;;7371802;19;20025;-68
2021/08/29 03:08:02;;;;;;;9.63;6.32;;;;;;;;;;7370046;19;20050;-68
2021/08/29 03:10:28;;;;;;;9.10;6.00;;;;;;;;;;7372003;19;20032;-67
2021/08/29 03:12:55;;;;;;;11.07;6.32;;;;;;;;;;7368857;19;20022;-68
2021/08/29 03:15:34;;;;;;;8.45;5.68;;;;;;;;;;7370240;19;20022;-68
2021/08/29 03:18:11;;;;;;;9.00;5.90;;;;;;;;;;7368953;19;20046;-68
2021/08/29 03:20:41;;;;;;;9.57;6.30;;;;;;;;;;7369391;19;20029;-67
2021/08/29 03:23:07;;;;;;;10.88;6.15;;;;;;;;;;7371860;19;20705;-67
2021/08/29 03:25:33;;;;;;;11.32;5.90;;;;;;;;;;7369353;19;20007;-67
2021/08/29 03:28:01;;;;;;;17.27;5.90;;;;;;;;;;7371897;19;20022;-67
2021/08/29 03:30:27;;;;;;;8.68;5.32;;;;;;;;;;7369497;19;20043;-67
2021/08/29 03:32:53;;;;;;;8.10;5.50;;;;;;;;;;7370127;19;20022;-67
2021/08/29 03:35:41;;;;;;;9.48;5.95;;;;;;;;;;7368959;19;20023;-67
2021/08/29 03:38:07;;;;;;;8.80;4.90;;;;;;;;;;7370099;19;20025;-67
2021/08/29 03:40:33;;;;;;;8.95;5.25;;;;;;;;;;7370923;19;20365;-67
2021/08/29 03:42:59;;;;;;;8.23;5.40;;;;;;;;;;7373220;19;20010;-67
2021/08/29 03:45:25;;;;;;;7.18;5.20;;;;;;;;;;7369927;19;20010;-67
2021/08/29 03:47:54;;;;;;;9.18;5.10;;;;;;;;;;7367343;19;20802;-69
2021/08/29 03:50:20;;;;;;;7.10;5.03;;;;;;;;;;7370686;19;20011;-69
2021/08/29 03:52:46;;;;;;;7.72;4.70;;;;;;;;;;7368433;19;20015;-67
2021/08/29 03:55:20;;;;;;;7.80;5.38;;;;;;;;;;7367283;19;20011;-70
2021/08/29 03:57:51;;;;;;;7.43;4.97;;;;;;;;;;7367349;19;20019;-67
2021/08/29 04:00:17;;;;;;;9.02;5.00;;;;;;;;;;7369612;19;20011;-67
2021/08/29 04:02:47;;;;;;;9.73;5.75;;;;;;;;;;7369022;19;20014;-67
2021/08/29 04:05:30;;;;;;;9.35;5.90;;;;;;;;;;7368891;19;20010;-67
2021/08/29 04:07:57;;;;;;;9.38;5.35;;;;;;;;;;7367711;19;20043;-67
2021/08/29 04:10:23;;;;;;;12.88;5.78;;;;;;;;;;7367489;19;20535;-67
2021/08/29 04:12:49;;;;;;;9.80;5.38;;;;;;;;;;7368891;19;20022;-67
2021/08/29 04:15:36;;;;;;;13.02;7.82;;;;;;;;;;7368800;19;20014;-67
2021/08/29 04:18:02;;;;;;;10.13;5.93;;;;;;;;;;7367888;19;20116;-61
2021/08/29 04:20:28;;;;;;;17.52;10.82;;;;;;;;;;7367569;19;20047;-61
2021/08/29 04:22:54;;;;;;;20.15;10.68;;;;;;;;;;7369954;19;20017;-61
2021/08/29 04:25:20;;;;;;;9.98;5.32;;;;;;;;;;7367238;19;20090;-61
2021/08/29 04:27:46;;;;;;;9.82;5.47;;;;;;;;;;7366643;19;20105;-61
2021/08/29 04:30:12;;;;;;;8.48;4.60;;;;;;;;;;7369933;19;20018;-61
2021/08/29 04:32:39;;;;;;;7.45;4.95;;;;;;;;;;7365955;19;20014;-61
2021/08/29 04:35:08;;;;;;;6.20;4.50;;;;;;;;;;7372921;19;20353;-61
2021/08/29 04:37:41;;;;;;;13.05;5.07;;;;;;;;;;7374247;19;20010;-61
2021/08/29 04:40:13;;;;;;;6.95;4.65;;;;;;;;;;7375791;19;20019;-61
2021/08/29 04:42:49;;;;;;;6.07;4.35;;;;;;;;;;7375500;19;20686;-61
2021/08/29 04:45:15;;;;;;;7.43;4.22;;;;;;;;;;7375024;19;20014;-61
2021/08/29 04:47:43;;;;;;;6.75;4.50;;;;;;;;;;7373624;19;20042;-61
2021/08/29 04:50:09;;;;;;;7.75;4.50;;;;;;;;;;7377081;19;20026;-61
2021/08/29 04:52:35;;;;;;;6.85;4.05;;;;;;;;;;7374235;19;20025;-61
2021/08/29 04:55:01;;;;;;;6.10;4.28;;;;;;;;;;7371648;19;20022;-61
2021/08/29 04:57:30;;;;;;;6.38;4.22;;;;;;;;;;7375230;19;20023;-61
2021/08/29 04:59:57;;;;;;;7.47;4.60;;;;;;;;;;7375201;19;20021;-61
2021/08/29 05:02:23;;;;;;;8.40;4.93;;;;;;;;;;7373813;19;20022;-61
2021/08/29 05:04:50;;;;;;;12.77;7.05;;;;;;;;;;7373828;19;20482;-61
2021/08/29 05:07:17;;;;;;;12.13;7.00;;;;;;;;;;7374386;19;20037;-61
2021/08/29 05:09:46;;;;;;;18.13;6.03;;;;;;;;;;7375043;19;20904;-61
2021/08/29 05:12:12;;;;;;;11.50;5.30;;;;;;;;;;7372711;19;20040;-61
2021/08/29 05:14:41;;;;;;;6.90;4.85;;;;;;;;;;7372702;19;20045;-61
2021/08/29 05:17:08;;;;;;;10.10;4.78;;;;;;;;;;7372450;19;20006;-61
2021/08/29 05:19:45;;;;;;;9.52;4.40;;;;;;;;;;7375289;19;20022;-61
2021/08/29 05:22:31;;;;;;;9.05;3.83;;;;;;;;;;7371856;19;20024;-61
2021/08/29 05:25:16;;;;;;;8.43;3.70;;;;;;;;;;7377437;19;20785;-61
2021/08/29 05:27:45;;;;;;;5.75;4.20;;;;;;;;;;7370720;19;20026;-61
2021/08/29 05:30:11;;;;;;;6.88;4.68;;;;;;;;;;7376244;19;20010;-61
2021/08/29 05:32:37;;;;;;;8.75;4.47;;;;;;;;;;7371432;19;20015;-61
2021/08/29 05:35:03;;;;;;;6.22;4.13;;;;;;;;;;7374000;19;20359;-61
2021/08/29 05:37:29;;;;;;;6.63;4.70;;;;;;;;;;7371749;19;20017;-61
2021/08/29 05:40:15;;;;;;;6.88;4.45;;;;;;;;;;7375454;19;20049;-61
2021/08/29 05:43:01;;;;;;;8.20;4.90;;;;;;;;;;7374926;19;20503;-61
2021/08/29 05:45:27;;;;;;;10.80;5.20;;;;;;;;;;7370325;19;20014;-61
2021/08/29 05:47:53;;;;;;;6.95;4.50;;;;;;;;;;7372335;19;20022;-61
2021/08/29 05:50:19;;;;;;;10.25;4.35;;;;;;;;;;7372783;19;20031;-61
2021/08/29 05:52:45;;;;;;;10.63;4.65;;;;;;;;;;7373746;19;20007;-61
2021/08/29 05:55:11;;;;;;;6.40;4.40;;;;;;;;;;7369647;19;20040;-61
2021/08/29 05:57:38;;;;;;;7.18;4.65;;;;;;;;;;7371604;19;20035;-61
2021/08/29 06:00:04;;;;;;;9.93;5.07;;;;;;;;;;7372543;19;20021;-61
2021/08/29 06:02:40;;;;;;;7.30;4.63;;;;;;;;;;7372974;19;20022;-61
2021/08/29 06:05:07;;;;;;;5.35;4.15;;;;;;;;;;7372517;19;20060;-61
2021/08/29 06:07:48;;;;;;;6.53;4.28;;;;;;;;;;7369866;19;20011;-61
2021/08/29 06:10:14;;;;;;;6.05;4.22;;;;;;;;;;7372358;19;20494;-61
2021/08/29 06:12:40;;;;;;;7.45;4.75;;;;;;;;;;7370159;19;20022;-61
2021/08/29 06:15:07;;;;;;;7.18;4.95;;;;;;;;;;7372274;19;20707;-61
2021/08/29 06:17:33;;;;;;;7.38;4.78;;;;;;;;;;7373208;19;20027;-61
2021/08/29 06:19:59;;;;;;;7.53;4.90;;;;;;;;;;7375458;19;20023;-61
2021/08/29 06:22:25;;;;;;;7.57;4.78;;;;;;;;;;7373465;19;20023;-61
2021/08/29 06:25:14;;;;;;;6.93;4.63;;;;;;;;;;7377579;19;20086;-61
2021/08/29 06:27:58;;;;;;;6.15;4.15;;;;;;;;;;7374791;19;20035;-61
2021/08/29 06:30:51;;;;;;;8.43;4.50;;;;;;;;;;7374332;19;20026;-61
2021/08/29 06:33:35;;;;;;;7.65;4.57;;;;;;;;;;7377120;19;20021;-61
2021/08/29 06:36:06;;;;;;;5.30;4.18;;;;;;;;;;7372099;19;20045;-61
2021/08/29 06:38:32;;;;;;;9.23;4.53;;;;;;;;;;7373145;19;20026;-61
2021/08/29 06:40:58;;;;;;;5.63;4.07;;;;;;;;;;7373473;19;20498;-61
2021/08/29 06:43:24;;;;;;;8.88;4.82;;;;;;;;;;7373409;19;20025;-61
2021/08/29 06:45:56;;;;;;;6.82;4.32;;;;;;;;;;7373785;19;20090;-61
2021/08/29 06:48:51;;;;;;;6.50;4.22;;;;;;;;;;7369951;19;20039;-61
2021/08/29 06:51:35;;;;;;;9.75;4.28;;;;;;;;;;7374024;19;20034;-61
2021/08/29 06:54:20;;;;;;;6.00;3.87;;;;;;;;;;7374220;19;20108;-61
2021/08/29 06:57:29;;;;;;;6.18;3.83;;;;;;;;;;7369538;19;20050;-61
2021/08/29 06:59:55;;;;;;;6.18;3.70;;;;;;;;;;7370457;19;20018;-61
2021/08/29 07:02:22;;;;;;;7.38;3.90;;;;;;;;;;7368438;19;20018;-61
2021/08/29 07:04:48;;;;;;;8.50;4.15;;;;;;;;;;7371005;19;20014;-61
2021/08/29 07:07:15;;;;;;;6.45;4.20;;;;;;;;;;7369820;19;20021;-61
2021/08/29 07:10:04;;;;;;;6.95;4.57;;;;;;;;;;7372277;19;20774;-61
2021/08/29 07:12:34;;;;;;;7.35;4.38;;;;;;;;;;7370397;19;20109;-61
2021/08/29 07:15:00;;;;;;;7.70;4.57;;;;;;;;;;7370777;19;20610;-61
2021/08/29 07:17:26;;;;;;;7.18;4.25;;;;;;;;;;7369938;19;20015;-62
2021/08/29 07:19:53;;;;;;;5.20;3.80;;;;;;;;;;7366727;19;20007;-62
2021/08/29 07:22:51;;;;;;;5.03;3.75;;;;;;;;;;7369329;19;20022;-62
2021/08/29 07:25:36;;;;;;;6.30;3.95;;;;;;;;;;7372099;19;20384;-63
2021/08/29 07:28:20;;;;;;;6.43;4.20;;;;;;;;;;7370642;19;20021;-63
2021/08/29 07:31:10;;;;;;;10.95;4.57;;;;;;;;;;7369241;19;20014;-64
2021/08/29 07:33:36;;;;;;;6.53;4.20;;;;;;;;;;7370253;19;20487;-64
2021/08/29 07:36:12;;;;;;;8.10;4.50;;;;;;;;;;7368492;19;20574;-64
2021/08/29 07:38:40;;;;;;;6.57;4.25;;;;;;;;;;7371022;19;20039;-64
2021/08/29 07:41:06;;;;;;;5.50;3.95;;;;;;;;;;7370389;19;20023;-64
2021/08/29 07:43:32;;;;;;;6.25;4.13;;;;;;;;;;7369917;19;20090;-64
2021/08/29 07:46:01;;;;;;;6.25;4.00;;;;;;;;;;7370224;19;20018;-64
2021/08/29 07:48:27;;;;;;;5.20;3.70;;;;;;;;;;7368975;19;20015;-64
2021/08/29 07:50:53;;;;;;;8.98;4.43;;;;;;;;;;7368431;19;20019;-64
2021/08/29 07:53:21;;;;;;;5.97;4.00;;;16.40;99.90;;;;;;7368284;19;20018;-65
2021/08/29 07:55:59;;;;;;;5.93;4.32;;;;;;;;;;7370613;19;20014;-64
2021/08/29 07:58:29;;;;;;;6.35;4.00;;;;;;;;;;7366334;19;20011;-64
2021/08/29 08:01:03;;;;;;;6.43;3.90;;;;;;;;;;7369663;19;20344;-64
2021/08/29 08:03:49;;;;;;;6.10;3.55;;;;;;;;;;7368904;19;20085;-64
2021/08/29 08:06:50;;;;;;;6.07;3.90;;;;;;;;;;7370733;19;20030;-64
2021/08/29 08:09:35;;;;;;;9.48;4.57;;;;;;;;;;7377717;19;20029;-64
2021/08/29 08:12:20;;;;;;;5.97;4.00;;;;;;;;;;7377175;19;20143;-64
2021/08/29 08:14:46;;;;;;;9.93;3.90;;;;;;;;;;7373058;19;20510;-65
2021/08/29 08:17:12;;;;;;;8.60;4.63;;;;;;;;;;7377712;19;20018;-64
2021/08/29 08:19:42;;;;;;;8.10;4.60;;;;;;;;;;7375050;19;20029;-64
2021/08/29 08:22:08;;;;;;;7.38;4.63;;;;;;;;;;7373808;19;20032;-64
2021/08/29 08:24:42;;;;;;;10.30;5.82;;;;;;;;;;7376123;19;20502;-64
2021/08/29 08:27:27;;;;;;;8.80;5.05;;;;;;;;;;7376780;19;20318;-64
2021/08/29 08:30:15;;;;;;;12.40;5.07;;;;;;;;;;7378091;19;20035;-64
2021/08/29 08:33:00;;;;;;;8.88;5.40;;;;;;;;;;7378174;19;20108;-64
2021/08/29 08:35:55;;;;;;;7.30;4.60;;;;;;;;;;7375229;19;20022;-65
2021/08/29 08:38:37;;;;;;;7.68;4.80;;;;;;;;;;7372525;19;20030;-65
2021/08/29 08:41:14;;;;;;;6.55;4.20;;;;;;;;;;7374213;19;20590;-70
2021/08/29 08:43:59;;;;;;;8.93;4.95;;;;;;;;;;7375278;19;20050;-66
2021/08/29 08:46:44;;;;;;;9.80;4.85;;;;;;;;;;7377218;19;20043;-65
2021/08/29 08:49:29;;;;;;;11.50;5.57;;;;;;;;;;7371687;19;20050;-64
2021/08/29 08:52:33;;;;;;;18.05;7.63;;;;;;;;;;7373764;19;20039;-64
2021/08/29 08:55:38;;;;;;;12.13;7.38;;;;;;;;;;7375845;19;20054;-64
2021/08/29 08:58:23;;;;;;;;;;;;;;;;;;7374678;19;20059;-66
2021/08/29 09:01:24;;;;;;;7.80;5.50;;;;;;;;;;7374557;19;19979;-63
2021/08/29 09:04:18;;;;;;;10.05;5.85;;;;;;;;;;7372802;19;20026;-62
2021/08/29 09:06:46;;;;;;;10.98;6.00;;;;;;;;;;7373602;19;20035;-62
2021/08/29 09:09:12;;;;;;;11.23;6.35;;;;;;;;;;7372495;19;20022;-63
2021/08/29 09:11:40;;;;;;;9.45;5.47;;;;;;;;;;7370486;19;20022;-63
2021/08/29 09:14:06;;;;;;;7.15;4.80;;;;;;;;;;7371539;19;20019;-62
2021/08/29 09:16:32;;;;;;;7.88;4.70;;;;;;;;;;7372130;19;20018;-63
2021/08/29 09:18:58;;;;;;;7.90;4.70;;;;;;;;;;7369430;19;20014;-61
2021/08/29 09:21:24;;;;;;;10.40;6.35;;;;;;;;;;7371803;19;20014;-63
2021/08/29 09:23:51;;;;;;;7.53;4.35;;;;;;;;;;7370698;19;20031;-63
2021/08/29 09:26:35;;;;;;;8.07;5.03;;;;;;;;;;7373738;19;20026;-63
2021/08/29 09:29:24;;;;;;;6.85;4.60;;;;;;;;;;7370881;19;20421;-64
2021/08/29 09:31:52;;;;;;;38.45;20.80;;;;;;;;;;7369715;19;20047;-63
2021/08/29 09:34:29;;;;;;;11.18;6.82;;;;;;;;;;7370665;19;20019;-63
2021/08/29 09:36:55;;;;;;;8.45;4.72;;;;;;;;;;7371193;19;20049;-64
2021/08/29 09:39:34;;;;;;;8.77;5.38;;;;;;;;;;7372479;19;20029;-63
2021/08/29 09:42:15;;;;;;;5.97;3.83;;;;;;;;;;7370358;19;20051;-63
2021/08/29 09:44:41;;;;;;;5.18;3.55;;;;;;;;;;7374339;19;20086;-63
2021/08/29 09:47:26;;;;;;;6.95;3.83;;;;;;;;;;7373938;19;20022;-63
2021/08/29 09:50:10;;;;;;;5.25;3.75;;;;;;;;;;7374111;19;20047;-63
2021/08/29 09:52:45;;;;;;;5.18;3.08;;;;;;;;;;7371974;19;20029;-63
2021/08/29 09:55:14;;;;;;;4.93;3.20;;;;;;;;;;7370467;19;20082;-63
2021/08/29 09:58:00;;;;;;;4.05;2.83;;;;;;;;;;7371886;19;20022;-66
2021/08/29 10:00:38;;;;;;;6.22;4.15;;;;;;;;;;7370461;19;20019;-62
2021/08/29 10:03:06;;;;;;;3.92;2.85;;;;;;;;;;7373220;19;20043;-63
2021/08/29 10:05:49;;;;;;;5.68;2.75;;;;;;;;;;7370779;19;20018;-63
2021/08/29 10:08:15;;;;;;;8.30;4.57;;;;;;;;;;7371591;19;20085;-63
2021/08/29 10:10:48;;;;;;;12.93;5.55;;;;;;;;;;7370849;19;20023;-62
2021/08/29 10:13:19;;;;;;;13.93;5.15;;;;;;;;;;7370482;19;20014;-62
2021/08/29 10:16:06;;;;;;;5.07;2.38;;;;;;;;;;7371116;19;20574;-62
2021/08/29 10:18:51;;;;;;;2.92;1.98;;;;;;;;;;7372728;19;20742;-61
2021/08/29 10:21:36;;;;;;;5.00;2.60;;;;;;;;;;7371396;19;20035;-61
2021/08/29 10:24:03;;;;;;;4.25;2.63;;;;;;;;;;7373135;19;20015;-61
2021/08/29 10:26:29;;;;;;;4.55;1.92;;;;;;;;;;7370744;19;20006;-61
2021/08/29 10:29:00;;;;;;;5.13;1.80;;;;;;;;;;7369702;19;20102;-61
2021/08/29 10:32:05;;;;;;;3.88;2.72;;;;;;;;;;7364654;19;20035;-61
2021/08/29 10:34:35;;;;;;;3.17;1.98;;;;;;;;;;7366807;19;20102;-60
2021/08/29 10:37:01;;;;;;;1.85;1.40;;;;;;;;;;7371396;19;20014;-61
2021/08/29 10:39:46;;;;;;;1.52;1.40;;;;;;;;;;7374136;19;20018;-62
2021/08/29 10:42:30;;;;;;;6.05;3.47;;;;;;;;;;7372234;19;20559;-61
2021/08/29 10:45:31;;;;;;;2.47;1.80;;;;;;;;;;7373403;19;20033;-61
2021/08/29 10:48:00;;;;;;;2.10;1.20;;;;;;;;;;7373608;19;20026;-61
2021/08/29 10:50:45;;;;;;;2.92;2.20;;;;;;;;;;7371067;19;20031;-61
2021/08/29 10:53:11;;;;;;;3.05;1.50;;;;;;;;;;7373611;19;20010;-61
2021/08/29 10:55:37;;;;;;;7.03;3.58;;;;;;;;;;7368738;19;20675;-61
2021/08/29 10:58:03;;;;;;;1.95;1.60;;;;;;;;;;7369207;19;20007;-60
2021/08/29 11:00:30;;;;;;;3.15;2.08;;;;;;;;;;7368005;19;20018;-61
2021/08/29 11:03:07;;;;;;;2.97;2.45;;;;;;;;;;7368359;19;20014;-61
2021/08/29 11:06:03;;;;;;;3.25;1.40;;;;;;;;;;7366092;19;20043;-60
2021/08/29 11:08:34;;;;;;;2.78;1.00;;;;;;;;;;7368257;19;20029;-61
2021/08/29 11:11:01;;;;;;;2.15;1.40;;;;;;;;;;7365703;19;20071;-61
2021/08/29 11:13:33;;;;;;;1.98;1.20;;;;;;;;;;7368529;19;20026;-61
2021/08/29 11:16:00;;;;;;;2.20;1.75;;;;;;;;;;7369570;19;20018;-60
2021/08/29 11:18:45;;;;;;;1.55;0.90;;;;;;;;;;7369080;19;20035;-60
2021/08/29 11:21:12;;;;;;;1.40;1.10;;;;;;;;;;7368685;19;20487;-61
2021/08/29 11:24:04;;;;;;;2.97;0.52;;;;;;;;;;7370707;19;20037;-61
2021/08/29 11:26:30;;;;;;;1.23;0.70;;;;;;;;;;7370352;19;20023;-60
2021/08/29 11:29:14;;;;;;;0.20;0.20;;;;;;;;;;7371382;19;20030;-60
2021/08/29 11:31:52;;;;;;;0.30;0.30;;;;;;;;;;7369237;19;20420;-60
2021/08/29 11:34:21;;;;;;;0.20;0.20;;;;;;;;;;7368336;19;20018;-61
2021/08/29 11:36:48;;;;;;;3.70;0.30;;;;;;;;;;7369779;19;20022;-61
2021/08/29 11:39:17;;;;;;;0.50;0.20;;;;;;;;;;7368297;19;20043;-61
2021/08/29 11:41:43;;;;;;;0.40;0.30;;;;;;;;;;7368668;19;20356;-60
2021/08/29 11:44:09;;;;;;;0.17;0.13;;;;;;;;;;7376811;19;20432;-61
2021/08/29 11:46:39;;;;;;;0.47;0.20;;;;;;;;;;7377740;19;20046;-60
2021/08/29 11:49:14;;;;;;;1.67;0.40;;;;;;;;;;7376928;19;20018;-60
2021/08/29 11:51:52;;;;;;;0.90;0.47;;;;;;;;;;7373756;19;20385;-61
2021/08/29 11:54:22;;;;;;;3.50;0.35;;;;;;;;;;7375635;19;20011;-61
2021/08/29 11:56:56;;;;;;;2.38;0.38;;;;;;;;;;7374645;19;20044;-61
2021/08/29 11:59:24;;;;;;;0.40;0.30;;;;;;;;;;7376896;19;20022;-61
2021/08/29 12:01:50;;;;;;;1.80;0.45;;;;;;;;;;7373955;19;20019;-61
2021/08/29 12:04:16;;;;;;;0.73;0.30;;;;;;;;;;7378238;19;20042;-61
2021/08/29 12:07:05;;;;;;;0.52;0.40;;;;;;;;;;7376602;19;20716;-61
2021/08/29 12:10:09;;;;;;;0.50;0.25;;;;;;;;;;7374132;19;20014;-61
2021/08/29 12:12:54;;;;;;;0.55;0.40;;;;;;;;;;7373297;19;20033;-61
2021/08/29 12:15:20;;;;;;;0.40;0.40;;;;;;;;;;7373914;19;20511;-61
2021/08/29 12:18:06;;;;;;;6.07;0.40;;;;;;;;;;7377394;19;20098;-61
2021/08/29 12:20:35;;;;;;;0.32;0.32;;;;;;;;;;7376138;19;20056;-61
2021/08/29 12:23:36;;;;;;;0.80;0.40;;;;;;;;;;7372384;19;20823;-61
2021/08/29 12:26:03;;;;;;;1.52;0.40;;;;;;;;;;7375216;19;20509;-61
2021/08/29 12:28:30;;;;;;;0.30;0.30;;;;;;;;;;7373857;19;20074;-61
2021/08/29 12:30:56;;;;;;;1.23;0.30;;;21.40;99.90;;;;;;7375721;19;20393;-61
2021/08/29 12:33:22;;;;;;;2.38;0.40;;;;;;;;;;7376671;19;20014;-61
2021/08/29 12:35:49;;;;;;;0.43;0.38;;;;;;;;;;7374177;19;20053;-61
2021/08/29 12:38:16;;;;;;;0.50;0.47;;;;;;;;;;7375254;19;20017;-61
2021/08/29 12:40:42;;;;;;;0.47;0.45;;;;;;;;;;7372873;19;20017;-61
2021/08/29 12:43:08;;;;;;;0.57;0.40;;;;;;;;;;7375954;19;20031;-60
2021/08/29 12:45:35;;;;;;;0.52;0.40;;;;;;;;;;7374562;19;20563;-61
2021/08/29 12:48:01;;;;;;;0.50;0.50;;;;;;;;;;7372983;19;20014;-60
2021/08/29 12:50:28;;;;;;;1.85;0.35;;;;;;;;;;7373726;19;20014;-61
2021/08/29 12:52:54;;;;;;;0.90;0.50;;;;;;;;;;7374488;19;20028;-61
2021/08/29 12:55:20;;;;;;;0.68;0.50;;;;;;;;;;7371984;19;20343;-60
2021/08/29 12:57:46;;;;;;;0.50;0.40;;;;;;;;;;7375378;19;20022;-61
2021/08/29 13:00:12;;;;;;;0.40;0.40;;;;;;;;;;7375943;19;20038;-61
2021/08/29 13:02:38;;;;;;;1.73;0.60;;;;;;;;;;7371304;19;20022;-61
2021/08/29 13:05:04;;;;;;;0.80;0.30;;;;;;;;;;7375711;19;20010;-61
2021/08/29 13:07:30;;;;;;;0.68;0.40;;;;;;;;;;7375436;19;20031;-61
2021/08/29 13:10:02;;;;;;;1.23;1.02;;;;;;;;;;7373173;19;20122;-61
2021/08/29 13:12:29;;;;;;;1.27;1.00;;;;;;;;;;7371101;19;20026;-61
2021/08/29 13:14:55;;;;;;;2.35;1.27;;;;;;;;;;7373223;19;20032;-61
2021/08/29 13:17:21;;;;;;;1.63;1.23;;;;;;;;;;7373769;19;20482;-61
2021/08/29 13:19:47;;;;;;;3.25;1.25;;;;;;;;;;7374561;19;20023;-61
2021/08/29 13:22:13;;;;;;;1.75;1.25;;;;;;;;;;7373101;19;20040;-61
2021/08/29 13:24:39;;;;;;;2.40;1.20;;;;;;;;;;7372857;19;20011;-61
2021/08/29 13:27:06;;;;;;;0.93;0.90;;;;;;;;;;7373115;19;20377;-61
2021/08/29 13:29:32;;;;;;;0.93;0.85;;;;;;;;;;7375535;19;20022;-61
2021/08/29 13:31:58;;;;;;;0.40;0.40;;;;;;;;;;7371023;19;20011;-61
2021/08/29 13:34:24;;;;;;;1.02;0.93;;;;;;;;;;7373207;19;20022;-61
2021/08/29 13:36:50;;;;;;;4.15;0.98;;;;;;;;;;7373721;19;20015;-61
2021/08/29 13:39:16;;;;;;;0.70;0.60;;;;;;;;;;7374082;19;20015;-61
2021/08/29 13:41:42;;;;;;;3.78;2.20;;;;;;;;;;7371536;19;20344;-61
2021/08/29 13:44:08;;;;;;;5.60;1.80;;;;;;;;;;7373864;19;20018;-61
2021/08/29 13:46:34;;;;;;;3.95;2.13;;;;;;;;;;7371401;19;20022;-61
2021/08/29 13:49:00;;;;;;;3.53;1.90;;;;;;;;;;7373014;19;20014;-61
2021/08/29 13:51:27;;;;;;;3.72;1.95;;;;;;;;;;7373480;19;20023;-61
2021/08/29 13:53:53;;;;;;;3.47;1.85;;;;;;;;;;7371544;19;20021;-61
2021/08/29 13:56:19;;;;;;;3.55;1.80;;;;;;;;;;7374356;19;20024;-62
2021/08/29 13:58:45;;;;;;;6.55;2.90;;;;;;;;;;7372185;19;20081;-61
2021/08/29 14:01:11;;;;;;;3.33;1.92;;;;;;;;;;7372376;19;20035;-61
2021/08/29 14:03:37;;;;;;;2.35;1.50;;;;;;;;;;7372563;19;20051;-61
2021/08/29 14:06:03;;;;;;;3.83;1.75;;;;;;;;;;7372655;19;20010;-61
2021/08/29 14:08:33;;;;;;;4.88;2.20;;;;;;;;;;7372218;19;20601;-61
2021/08/29 14:10:59;;;;;;;3.30;1.80;;;;;;;;;;7372097;19;20270;-61
2021/08/29 14:13:25;;;;;;;1.70;1.30;;;;;;;;;;7372357;19;20750;-64
2021/08/29 14:15:52;;;;;;;1.98;1.33;;;;;;;;;;7368411;19;20076;-61
2021/08/29 14:18:18;;;;;;;1.73;1.35;;;;;;;;;;7372217;19;20023;-61
2021/08/29 14:20:44;;;;;;;4.60;2.10;;;;;;;;;;7371822;19;20022;-60
2021/08/29 14:23:10;;;;;;;4.10;1.60;;;;;;;;;;7371817;19;20019;-61
2021/08/29 14:25:36;;;;;;;2.53;1.33;;;;;;;;;;7373120;19;20022;-61
2021/08/29 14:28:02;;;;;;;3.15;1.38;;;;;;;;;;7368436;19;20779;-60
2021/08/29 14:30:28;;;;;;;2.65;1.40;;;;;;;;;;7371830;19;20031;-61
2021/08/29 14:32:54;;;;;;;2.67;1.20;;;;;;;;;;7371630;19;20038;-61
2021/08/29 14:35:20;;;;;;;1.98;1.50;;;;;;;;;;7370541;19;20022;-61
2021/08/29 14:37:46;;;;;;;6.72;1.55;;;;;;;;;;7370053;19;20090;-61
2021/08/29 14:40:12;;;;;;;2.60;1.80;;;;;;;;;;7372792;19;20034;-61
2021/08/29 14:42:38;;;;;;;3.35;1.50;;;;;;;;;;7370565;19;20015;-61
2021/08/29 14:45:04;;;;;;;2.20;1.50;;;;;;;;;;7369641;19;20613;-61
2021/08/29 14:47:30;;;;;;;2.22;1.40;;;;;;;;;;7371083;19;20014;-61
2021/08/29 14:49:56;;;;;;;6.80;1.38;;;;;;;;;;7371516;19;20039;-61
2021/08/29 14:52:24;;;;;;;3.55;1.25;;;;;;;;;;7369299;19;20026;-61
2021/08/29 14:54:50;;;;;;;3.15;1.90;;;;;;;;;;7371095;19;20033;-61
2021/08/29 14:57:16;;;;;;;6.05;2.63;;;;;;;;;;7375893;19;20483;-61
2021/08/29 14:59:42;;;;;;;2.95;1.90;;;;;;;;;;7375568;19;20123;-61
2021/08/29 15:02:08;;;;;;;1.90;1.20;;;;;;;;;;7373540;19;20022;-61